Time;durP1;ratioP1;P1;durP2;ratioP2;P2;SDS_P1;SDS_P2;PMS_P1;PMS_P2;Temp;Humidity;BMP_temperature;BMP_pressure;BME280_temperature;BME280_humidity;BME280_pressure;Samples;Min_cycle;Max_cycle;Signal;HPM_P1;HPM_P2
2024/02/29 00:01:37;;;;;;;50.28;19.83;;;-1.30;99.90;;;;;;5056446;28;20486;-46
2024/02/29 00:04:03;;;;;;;56.78;20.20;;;-1.30;99.90;;;;;;5055825;28;20028;-47
2024/02/29 00:06:29;;;;;;;54.35;19.17;;;-1.30;99.90;;;;;;5056648;28;20060;-46
2024/02/29 00:08:54;;;;;;;30.92;12.90;;;-1.30;99.90;;;;;;5054208;28;20086;-49
2024/02/29 00:11:21;;;;;;;45.53;17.20;;;-1.30;99.90;;;;;;5056177;28;20025;-46
2024/02/29 00:13:46;;;;;;;35.50;14.40;;;-1.40;99.90;;;;;;5055918;28;20058;-51
2024/02/29 00:16:12;;;;;;;46.90;17.63;;;-1.40;99.90;;;;;;5054625;28;20281;-50
2024/02/29 00:18:37;;;;;;;39.35;15.02;;;-1.40;99.90;;;;;;5054906;28;20046;-48
2024/02/29 00:21:03;;;;;;;49.03;17.42;;;-1.40;99.90;;;;;;5056868;28;20057;-46
2024/02/29 00:23:29;;;;;;;53.70;18.95;;;-1.50;99.90;;;;;;5053325;28;20107;-50
2024/02/29 00:25:54;;;;;;;38.75;15.13;;;-1.50;99.90;;;;;;5055066;28;20090;-51
2024/02/29 00:28:20;;;;;;;44.10;17.65;;;-1.50;99.90;;;;;;5051573;28;20070;-50
2024/02/29 00:30:45;;;;;;;42.53;14.48;;;-1.50;99.90;;;;;;5055251;28;20526;-49
2024/02/29 00:33:10;;;;;;;42.13;16.35;;;-1.50;99.90;;;;;;5051945;28;20070;-50
2024/02/29 00:35:36;;;;;;;48.85;18.20;;;-1.50;99.90;;;;;;5054024;28;20024;-50
2024/02/29 00:38:01;;;;;;;36.92;16.02;;;-1.60;99.90;;;;;;5051520;28;20035;-48
2024/02/29 00:40:27;;;;;;;42.60;14.95;;;-1.60;99.90;;;;;;5049506;28;20028;-51
2024/02/29 00:42:53;;;;;;;54.22;20.15;;;-1.60;99.90;;;;;;5052331;28;20094;-51
2024/02/29 00:45:18;;;;;;;55.60;19.55;;;-1.60;99.90;;;;;;5055641;28;20410;-49
2024/02/29 00:47:44;;;;;;;51.42;18.75;;;-1.60;99.90;;;;;;5057955;28;20389;-47
2024/02/29 00:50:10;;;;;;;42.78;15.50;;;-1.60;99.90;;;;;;5057270;28;20029;-53
2024/02/29 00:52:35;;;;;;;60.45;20.00;;;-1.60;99.90;;;;;;5055699;28;20120;-49
2024/02/29 00:55:03;;;;;;;64.50;21.38;;;-1.60;99.90;;;;;;5056051;28;20643;-53
2024/02/29 00:57:28;;;;;;;47.38;16.52;;;-1.60;99.90;;;;;;5055520;28;20063;-45
2024/02/29 00:59:54;;;;;;;47.13;17.15;;;-1.60;99.90;;;;;;5056205;28;20052;-47
2024/02/29 01:02:19;;;;;;;39.10;15.48;;;-1.60;99.90;;;;;;5056798;28;20028;-48
2024/02/29 01:04:45;;;;;;;39.72;15.25;;;-1.70;99.90;;;;;;5052946;28;20387;-49
2024/02/29 01:07:10;;;;;;;58.58;19.58;;;-1.70;99.90;;;;;;5063048;28;20044;-49
2024/02/29 01:09:36;;;;;;;53.22;18.60;;;-1.70;99.90;;;;;;5060540;28;20079;-45
2024/02/29 01:12:01;;;;;;;49.65;18.08;;;-1.70;99.90;;;;;;5060979;28;20031;-47
2024/02/29 01:14:27;;;;;;;43.28;16.30;;;-1.70;99.90;;;;;;5061410;28;20030;-48
2024/02/29 01:16:53;;;;;;;47.65;18.08;;;-1.70;99.90;;;;;;5061644;28;20036;-45
2024/02/29 01:19:19;;;;;;;47.10;17.90;;;-1.70;99.90;;;;;;5062122;28;20111;-48
2024/02/29 01:21:45;;;;;;;45.30;17.30;;;-1.70;99.90;;;;;;5059315;28;20115;-49
2024/02/29 01:24:10;;;;;;;61.00;21.08;;;-1.70;99.90;;;;;;5053078;28;20064;-47
2024/02/29 01:26:36;;;;;;;60.30;19.65;;;-1.70;99.90;;;;;;5061527;28;20048;-48
2024/02/29 01:29:01;;;;;;;47.75;17.88;;;-1.70;99.90;;;;;;5061264;28;20032;-49
2024/02/29 01:31:27;;;;;;;45.35;17.40;;;-1.70;99.90;;;;;;5061348;28;20483;-50
2024/02/29 01:33:52;;;;;;;40.53;15.73;;;-1.70;99.90;;;;;;5063162;28;20689;-50
2024/02/29 01:36:18;;;;;;;48.03;17.73;;;-1.70;99.90;;;;;;5061126;28;20033;-47
2024/02/29 01:38:43;;;;;;;47.90;18.40;;;-1.70;99.90;;;;;;5058929;28;20752;-50
2024/02/29 01:41:09;;;;;;;57.72;21.77;;;-1.70;99.90;;;;;;5061199;28;20043;-47
2024/02/29 01:43:35;;;;;;;43.17;15.95;;;-1.70;99.90;;;;;;5060918;28;20083;-51
2024/02/29 01:46:11;;;;;;;38.28;16.35;;;-1.80;99.90;;;;;;5060949;28;20627;-46
2024/02/29 01:48:36;;;;;;;43.00;15.77;;;-1.80;99.90;;;;;;5060819;28;20131;-49
2024/02/29 01:51:03;;;;;;;41.30;14.15;;;-1.80;99.90;;;;;;5061015;28;20028;-46
2024/02/29 01:53:29;;;;;;;51.40;18.02;;;-1.80;99.90;;;;;;5061952;28;20031;-48
2024/02/29 01:55:55;;;;;;;42.53;16.48;;;-1.80;99.90;;;;;;5058979;28;20021;-46
2024/02/29 01:58:20;;;;;;;58.30;18.45;;;-1.80;99.90;;;;;;5060586;28;20020;-47
2024/02/29 02:00:46;;;;;;;52.50;18.90;;;-1.90;99.90;;;;;;5060607;28;20483;-50
2024/02/29 02:03:11;;;;;;;44.05;16.92;;;-1.90;99.90;;;;;;5056158;28;20680;-45
2024/02/29 02:05:37;;;;;;;47.17;16.25;;;-1.90;99.90;;;;;;5060737;28;20039;-51
2024/02/29 02:08:03;;;;;;;34.42;13.85;;;-2.00;99.90;;;;;;5062437;28;20043;-48
2024/02/29 02:10:29;;;;;;;43.75;15.93;;;-2.00;99.90;;;;;;5060521;28;20045;-47
2024/02/29 02:12:55;;;;;;;44.00;14.18;;;-2.10;99.90;;;;;;5060694;28;20039;-49
2024/02/29 02:15:20;;;;;;;43.67;15.10;;;-2.10;99.90;;;;;;5059314;28;20581;-51
2024/02/29 02:17:47;;;;;;;40.10;13.80;;;-2.10;99.90;;;;;;5060554;28;20035;-50
2024/02/29 02:20:18;;;;;;;31.17;12.27;;;-2.20;99.90;;;;;;5060210;28;20021;-46
2024/02/29 02:22:44;;;;;;;34.65;13.35;;;-2.20;99.90;;;;;;5060192;28;20052;-46
2024/02/29 02:25:10;;;;;;;32.67;11.80;;;-2.30;99.90;;;;;;5060323;28;20123;-44
2024/02/29 02:27:38;;;;;;;39.75;14.23;;;-2.30;99.90;;;;;;5062108;28;20024;-49
2024/02/29 02:30:07;;;;;;;41.80;14.35;;;-2.40;99.90;;;;;;5060192;28;20025;-50
2024/02/29 02:32:34;;;;;;;33.22;13.32;;;-2.40;99.90;;;;;;5060007;28;20024;-49
2024/02/29 02:35:00;;;;;;;36.47;12.73;;;-2.40;99.90;;;;;;5059972;28;20107;-48
2024/02/29 02:37:25;;;;;;;43.50;15.25;;;-2.40;99.90;;;;;;5060546;28;20020;-50
2024/02/29 02:39:51;;;;;;;42.70;14.82;;;-2.40;99.90;;;;;;5053258;28;20029;-49
2024/02/29 02:42:16;;;;;;;47.55;17.33;;;-2.40;99.90;;;;;;5060023;28;20378;-50
2024/02/29 02:44:41;;;;;;;42.33;14.95;;;-2.40;99.90;;;;;;5061590;28;20078;-50
2024/02/29 02:47:07;;;;;;;41.15;15.27;;;-2.30;99.90;;;;;;5060142;28;20033;-48
2024/02/29 02:49:32;;;;;;;44.72;14.32;;;-2.40;99.90;;;;;;5059662;28;20025;-48
2024/02/29 02:51:58;;;;;;;42.10;14.15;;;-2.40;99.90;;;;;;5059578;28;20020;-47
2024/02/29 02:54:23;;;;;;;37.42;14.27;;;-2.40;99.90;;;;;;5059817;28;20069;-49
2024/02/29 02:56:49;;;;;;;38.28;13.55;;;-2.50;99.90;;;;;;5059683;28;20036;-50
2024/02/29 02:59:14;;;;;;;45.10;15.18;;;-2.50;99.90;;;;;;5061505;28;20432;-48
2024/02/29 03:01:40;;;;;;;40.20;15.18;;;-2.50;99.90;;;;;;5059821;28;20111;-47
2024/02/29 03:04:05;;;;;;;47.83;15.98;;;-2.50;99.90;;;;;;5054456;28;20029;-46
2024/02/29 03:06:31;;;;;;;37.13;14.27;;;-2.40;99.90;;;;;;5059575;28;20036;-48
2024/02/29 03:08:56;;;;;;;48.17;17.27;;;-2.40;99.90;;;;;;5055131;28;20043;-47
2024/02/29 03:11:22;;;;;;;57.85;20.55;;;-2.40;99.90;;;;;;5059472;28;20153;-46
2024/02/29 03:13:47;;;;;;;69.22;22.60;;;-2.40;99.90;;;;;;5061262;28;20031;-48
2024/02/29 03:16:21;;;;;;;46.65;18.10;;;-2.40;99.90;;;;;;5056194;28;20510;-49
2024/02/29 03:18:46;;;;;;;48.35;19.27;;;-2.30;99.90;;;;;;5051713;28;20028;-49
2024/02/29 03:21:12;;;;;;;68.22;21.48;;;-2.30;99.90;;;;;;5054186;28;20584;-47
2024/02/29 03:23:37;;;;;;;41.35;16.42;;;-2.30;99.90;;;;;;5057940;28;20044;-45
2024/02/29 03:26:05;;;;;;;53.40;19.00;;;-2.30;99.90;;;;;;5059054;28;20056;-52
2024/02/29 03:28:31;;;;;;;61.78;22.67;;;-2.30;99.90;;;;;;5059134;28;20056;-49
2024/02/29 03:30:57;;;;;;;79.38;25.75;;;-2.30;99.90;;;;;;5055319;28;20108;-48
2024/02/29 03:33:22;;;;;;;69.20;21.83;;;-2.30;99.90;;;;;;5061010;28;20181;-48
2024/02/29 03:35:48;;;;;;;102.72;29.23;;;-2.30;99.90;;;;;;5058931;28;20075;-46
2024/02/29 03:38:15;;;;;;;72.15;24.02;;;-2.30;99.90;;;;;;5059298;28;20028;-47
2024/02/29 03:40:40;;;;;;;91.78;27.08;;;-2.20;99.90;;;;;;5051269;28;20050;-50
2024/02/29 03:43:06;;;;;;;94.78;27.83;;;-2.20;99.90;;;;;;5058977;28;20115;-49
2024/02/29 03:45:31;;;;;;;93.25;26.80;;;-2.20;99.90;;;;;;5058794;28;20025;-46
2024/02/29 03:47:57;;;;;;;86.28;26.65;;;-2.20;99.90;;;;;;5060898;28;20029;-46
2024/02/29 03:50:24;;;;;;;61.15;20.55;;;-2.10;99.90;;;;;;5059132;28;20524;-52
2024/02/29 03:52:50;;;;;;;62.00;20.48;;;-2.20;99.90;;;;;;5059195;28;20254;-48
2024/02/29 03:55:15;;;;;;;55.53;20.65;;;-2.20;99.90;;;;;;5058545;28;20106;-46
2024/02/29 03:57:41;;;;;;;50.72;20.05;;;-2.20;99.90;;;;;;5058712;28;20111;-49
2024/02/29 04:00:10;;;;;;;93.53;29.33;;;-2.20;99.90;;;;;;5058854;28;20439;-47
2024/02/29 04:02:37;;;;;;;77.10;23.58;;;-2.20;99.90;;;;;;5058814;28;20035;-46
2024/02/29 04:05:04;;;;;;;79.80;25.38;;;-2.20;99.90;;;;;;5060876;28;20100;-51
2024/02/29 04:07:30;;;;;;;73.50;22.83;;;-2.10;99.90;;;;;;5056765;28;20561;-52
2024/02/29 04:09:55;;;;;;;75.53;25.25;;;-2.20;99.90;;;;;;5056687;28;20127;-46
2024/02/29 04:12:21;;;;;;;80.10;25.30;;;-2.20;99.90;;;;;;5049790;28;20494;-49
2024/02/29 04:14:47;;;;;;;65.70;23.65;;;-2.20;99.90;;;;;;5050581;28;20560;-50
2024/02/29 04:17:12;;;;;;;78.78;27.98;;;-2.20;99.90;;;;;;5054769;28;20020;-47
2024/02/29 04:19:38;;;;;;;108.95;31.13;;;-2.20;99.90;;;;;;5060455;28;20020;-51
2024/02/29 04:22:04;;;;;;;75.60;24.13;;;-2.20;99.90;;;;;;5054678;28;20078;-49
2024/02/29 04:24:29;;;;;;;82.55;26.38;;;-2.20;99.90;;;;;;5054340;28;20043;-45
2024/02/29 04:26:55;;;;;;;84.68;26.00;;;-2.20;99.90;;;;;;5058722;28;20028;-48
2024/02/29 04:29:20;;;;;;;78.00;25.35;;;-2.20;99.90;;;;;;5057122;28;20029;-48
2024/02/29 04:31:47;;;;;;;101.95;29.00;;;-2.20;99.90;;;;;;5056517;28;20109;-49
2024/02/29 04:34:13;;;;;;;91.05;25.75;;;-2.20;99.90;;;;;;5060349;28;20017;-51
2024/02/29 04:36:38;;;;;;;73.43;25.60;;;-2.20;99.90;;;;;;5058480;28;20027;-51
2024/02/29 04:39:04;;;;;;;75.63;24.88;;;-2.10;99.90;;;;;;5055416;28;20039;-45
2024/02/29 04:41:29;;;;;;;84.32;26.67;;;-2.20;99.90;;;;;;5062095;28;20051;-49
2024/02/29 04:43:55;;;;;;;105.20;29.25;;;-2.20;99.90;;;;;;5062305;28;20040;-45
2024/02/29 04:46:21;;;;;;;115.40;32.15;;;-2.20;99.90;;;;;;5062081;28;20056;-47
2024/02/29 04:48:46;;;;;;;103.20;30.75;;;-2.20;99.90;;;;;;5057876;28;20028;-47
2024/02/29 04:51:12;;;;;;;92.85;26.83;;;-2.20;99.90;;;;;;5064278;28;20017;-47
2024/02/29 04:53:37;;;;;;;73.00;25.25;;;-2.20;99.90;;;;;;5061593;28;20048;-46
2024/02/29 04:56:04;;;;;;;78.78;24.63;;;-2.20;99.90;;;;;;5061681;28;20117;-50
2024/02/29 04:58:29;;;;;;;74.78;23.02;;;-2.20;99.90;;;;;;5061839;28;20039;-51
2024/02/29 05:00:55;;;;;;;106.25;31.92;;;-2.20;99.90;;;;;;5061836;28;20017;-47
2024/02/29 05:03:21;;;;;;;74.53;23.88;;;-2.20;99.90;;;;;;5062138;28;20036;-48
2024/02/29 05:05:47;;;;;;;80.43;24.88;;;-2.20;99.90;;;;;;5063561;28;20501;-47
2024/02/29 05:08:12;;;;;;;99.25;30.45;;;-2.20;99.90;;;;;;5061591;28;20022;-47
2024/02/29 05:10:38;;;;;;;87.60;28.83;;;-2.20;99.90;;;;;;5061508;28;20077;-50
2024/02/29 05:13:04;;;;;;;109.60;31.10;;;-2.20;99.90;;;;;;5061893;28;20059;-46
2024/02/29 05:15:31;;;;;;;93.65;29.85;;;-2.20;99.90;;;;;;5061870;28;20048;-49
2024/02/29 05:17:57;;;;;;;97.75;28.63;;;-2.20;99.90;;;;;;5061852;28;20029;-50
2024/02/29 05:20:23;;;;;;;88.72;28.90;;;-2.20;99.90;;;;;;5063489;28;20031;-45
2024/02/29 05:22:53;;;;;;;83.93;27.27;;;-2.10;99.90;;;;;;5061703;28;20029;-50
2024/02/29 05:25:19;;;;;;;110.80;31.85;;;-2.10;99.90;;;;;;5061443;28;20478;-47
2024/02/29 05:27:44;;;;;;;107.07;29.95;;;-2.10;99.90;;;;;;5061495;28;20090;-48
2024/02/29 05:30:10;;;;;;;126.95;33.67;;;-2.10;99.90;;;;;;5061633;28;20451;-45
2024/02/29 05:32:36;;;;;;;94.00;26.70;;;-2.10;99.90;;;;;;5061543;28;20032;-51
2024/02/29 05:35:02;;;;;;;82.38;25.42;;;-2.10;99.90;;;;;;5057290;28;20017;-52
2024/02/29 05:37:29;;;;;;;74.00;23.60;;;-2.10;99.90;;;;;;5062979;28;20047;-50
2024/02/29 05:39:58;;;;;;;70.05;23.27;;;-2.10;99.90;;;;;;5056928;28;20036;-49
2024/02/29 05:42:26;;;;;;;85.80;26.17;;;-2.10;99.90;;;;;;5060334;28;20070;-47
2024/02/29 05:44:52;;;;;;;71.22;23.02;;;-2.20;99.90;;;;;;5060411;28;20024;-45
2024/02/29 05:47:17;;;;;;;69.22;22.02;;;-2.20;99.90;;;;;;5060752;28;20067;-44
2024/02/29 05:49:43;;;;;;;78.47;24.73;;;-2.10;99.90;;;;;;5061133;28;20028;-44
2024/02/29 05:52:08;;;;;;;77.32;25.75;;;-2.20;99.90;;;;;;5061145;28;20402;-45
2024/02/29 05:54:34;;;;;;;87.97;26.13;;;-2.20;99.90;;;;;;5062959;28;20564;-45
2024/02/29 05:56:59;;;;;;;84.55;28.63;;;-2.20;99.90;;;;;;5062317;28;20029;-45
2024/02/29 05:59:25;;;;;;;105.63;30.77;;;-2.10;99.90;;;;;;5060875;28;20036;-43
2024/02/29 06:01:51;;;;;;;91.32;28.02;;;-2.10;99.90;;;;;;5061116;28;20039;-44
2024/02/29 06:04:16;;;;;;;95.15;28.80;;;-2.10;99.90;;;;;;5060551;28;20028;-44
2024/02/29 06:06:42;;;;;;;84.10;27.52;;;-2.10;99.90;;;;;;5060983;28;20490;-44
2024/02/29 06:09:12;;;;;;;84.65;26.05;;;-2.10;99.90;;;;;;5062394;28;20047;-44
2024/02/29 06:11:38;;;;;;;69.47;23.75;;;-2.10;99.90;;;;;;5058407;28;20040;-46
2024/02/29 06:14:06;;;;;;;62.05;21.63;;;-2.00;99.90;;;;;;5060994;28;20024;-46
2024/02/29 06:16:31;;;;;;;85.30;29.48;;;-2.00;99.90;;;;;;5060704;28;20039;-46
2024/02/29 06:18:57;;;;;;;96.82;30.80;;;-2.00;99.90;;;;;;5056241;28;20111;-42
2024/02/29 06:21:23;;;;;;;114.95;34.60;;;-2.00;99.90;;;;;;5060496;28;20028;-44
2024/02/29 06:23:48;;;;;;;95.90;28.95;;;-2.00;99.90;;;;;;5060314;28;20564;-43
2024/02/29 06:26:14;;;;;;;82.53;27.88;;;-1.90;99.90;;;;;;5058832;28;20028;-44
2024/02/29 06:28:40;;;;;;;92.38;30.30;;;-1.80;99.90;;;;;;5059929;28;20822;-45
2024/02/29 06:31:07;;;;;;;84.30;27.35;;;-1.80;99.90;;;;;;5060404;28;20025;-45
2024/02/29 06:33:32;;;;;;;78.03;27.00;;;-1.60;99.90;;;;;;5060275;28;20521;-43
2024/02/29 06:35:58;;;;;;;88.22;28.00;;;-1.50;99.90;;;;;;5059997;28;20112;-46
2024/02/29 06:38:24;;;;;;;82.10;25.20;;;-1.20;99.90;;;;;;5055854;28;20027;-44
2024/02/29 06:40:50;;;;;;;96.07;29.92;;;-0.90;99.90;;;;;;5056123;28;20029;-45
2024/02/29 06:43:17;;;;;;;89.68;29.23;;;-0.60;99.90;;;;;;5061787;28;20078;-44
2024/02/29 06:45:48;;;;;;;78.20;28.88;;;-0.30;99.90;;;;;;5058913;28;20032;-44
2024/02/29 06:48:15;;;;;;;81.20;29.20;;;0.00;99.90;;;;;;5059847;28;20091;-44
2024/02/29 06:50:40;;;;;;;73.15;28.23;;;0.20;99.90;;;;;;5059902;28;20032;-44
2024/02/29 06:53:06;;;;;;;64.70;23.27;;;0.50;99.90;;;;;;5059809;28;20058;-44
2024/02/29 06:55:31;;;;;;;68.30;25.35;;;0.80;99.90;;;;;;5059899;28;20119;-44
2024/02/29 06:57:57;;;;;;;67.75;25.77;;;1.10;99.90;;;;;;5055579;28;20423;-44
2024/02/29 07:00:24;;;;;;;76.40;28.45;;;1.30;99.90;;;;;;5056741;28;20036;-44
2024/02/29 07:02:50;;;;;;;61.20;25.15;;;1.50;99.90;;;;;;5061539;28;20234;-44
2024/02/29 07:05:16;;;;;;;62.45;27.83;;;1.70;99.90;;;;;;5059448;28;20418;-44
2024/02/29 07:07:42;;;;;;;62.92;26.38;;;2.00;99.90;;;;;;5059627;28;20571;-46
2024/02/29 07:10:09;;;;;;;58.08;24.30;;;2.30;99.90;;;;;;5054718;28;20078;-45
2024/02/29 07:12:35;;;;;;;64.88;29.77;;;2.50;99.90;;;;;;5059145;28;20032;-43
2024/02/29 07:15:00;;;;;;;57.25;26.85;;;2.80;99.90;;;;;;5059370;28;20163;-45
2024/02/29 07:17:26;;;;;;;56.78;25.70;;;2.90;99.90;;;;;;5061097;28;20546;-44
2024/02/29 07:19:51;;;;;;;60.53;28.75;;;3.10;99.90;;;;;;5056424;28;20142;-44
2024/02/29 07:22:17;;;;;;;59.85;28.65;;;3.30;99.90;;;;;;5059468;28;20048;-44
2024/02/29 07:24:43;;;;;;;60.10;27.73;;;3.40;99.90;;;;;;5059001;28;20107;-45
2024/02/29 07:27:10;;;;;;;49.22;24.17;;;3.50;99.90;;;;;;5055114;28;20021;-44
2024/02/29 07:29:35;;;;;;;45.00;22.05;;;3.60;99.90;;;;;;5054267;28;20021;-44
2024/02/29 07:32:01;;;;;;;50.60;25.17;;;3.70;99.90;;;;;;5052222;28;20024;-46
2024/02/29 07:34:26;;;;;;;50.30;25.83;;;3.80;99.90;;;;;;5057218;28;20491;-44
2024/02/29 07:36:51;;;;;;;48.97;25.58;;;4.10;99.90;;;;;;5058760;28;20036;-45
2024/02/29 07:39:17;;;;;;;50.08;26.10;;;4.30;99.90;;;;;;5053071;28;20029;-45
2024/02/29 07:41:42;;;;;;;54.20;26.40;;;4.50;99.90;;;;;;5056360;28;20028;-45
2024/02/29 07:44:08;;;;;;;50.83;25.30;;;4.80;99.90;;;;;;5058788;28;20032;-48
2024/02/29 07:46:34;;;;;;;47.25;25.38;;;5.10;99.90;;;;;;5060790;28;20039;-46
2024/02/29 07:48:59;;;;;;;52.90;25.27;;;5.30;99.90;;;;;;5058822;28;20023;-45
2024/02/29 07:51:25;;;;;;;39.50;21.60;;;5.50;99.90;;;;;;5050747;28;20278;-45
2024/02/29 07:53:50;;;;;;;47.08;24.05;;;5.80;99.90;;;;;;5056698;28;20052;-43
2024/02/29 07:56:16;;;;;;;45.55;24.70;;;6.10;99.90;;;;;;5053834;28;20346;-44
2024/02/29 07:58:41;;;;;;;44.58;23.67;;;6.30;99.90;;;;;;5058796;28;20032;-46
2024/02/29 08:01:07;;;;;;;50.13;26.63;;;6.30;99.90;;;;;;5059049;28;20390;-46
2024/02/29 08:03:33;;;;;;;47.00;25.95;;;6.30;99.90;;;;;;5058957;28;20561;-45
2024/02/29 08:05:58;;;;;;;45.20;25.25;;;6.40;98.10;;;;;;5058944;28;20107;-44
2024/02/29 08:08:24;;;;;;;48.45;27.33;;;6.40;96.70;;;;;;5058529;28;20445;-43
2024/02/29 08:10:49;;;;;;;50.00;26.08;;;6.50;94.30;;;;;;5058639;28;20071;-43
2024/02/29 08:13:15;;;;;;;50.17;29.90;;;6.30;93.10;;;;;;5063185;28;20024;-44
2024/02/29 08:15:40;;;;;;;43.63;25.75;;;6.30;93.90;;;;;;5060521;28;20439;-44
2024/02/29 08:18:07;;;;;;;49.40;25.63;;;6.20;92.90;;;;;;5058883;28;20029;-45
2024/02/29 08:20:33;;;;;;;41.40;23.33;;;6.40;93.90;;;;;;5058683;28;20025;-44
2024/02/29 08:22:58;;;;;;;41.05;24.27;;;6.50;93.80;;;;;;5056753;28;20045;-44
2024/02/29 08:25:26;;;;;;;44.00;27.13;;;6.70;94.10;;;;;;5058511;28;20405;-43
2024/02/29 08:27:54;;;;;;;42.05;26.00;;;6.80;93.50;;;;;;5056395;28;20025;-45
2024/02/29 08:30:19;;;;;;;44.95;26.17;;;6.90;92.50;;;;;;5061476;28;20017;-46
2024/02/29 08:32:47;;;;;;;46.72;26.55;;;6.90;91.60;;;;;;5060860;28;20031;-48
2024/02/29 08:35:12;;;;;;;48.35;27.88;;;7.00;91.70;;;;;;5062527;28;20047;-43
2024/02/29 08:37:38;;;;;;;47.35;26.73;;;7.00;91.90;;;;;;5062400;28;20242;-44
2024/02/29 08:40:07;;;;;;;40.03;23.02;;;7.10;91.20;;;;;;5056458;28;20336;-43
2024/02/29 08:42:33;;;;;;;40.40;26.23;;;7.20;90.50;;;;;;5062186;28;20028;-44
2024/02/29 08:44:58;;;;;;;47.85;28.02;;;7.40;91.70;;;;;;5058106;28;20028;-44
2024/02/29 08:47:24;;;;;;;46.65;27.77;;;7.50;90.30;;;;;;5052381;28;20036;-44
2024/02/29 08:49:49;;;;;;;39.83;24.98;;;7.50;89.00;;;;;;5063915;28;20094;-43
2024/02/29 08:52:15;;;;;;;36.90;23.55;;;7.60;88.20;;;;;;5055356;28;20448;-43
2024/02/29 08:54:40;;;;;;;36.35;21.63;;;7.80;90.60;;;;;;5057993;28;20029;-44
2024/02/29 08:57:07;;;;;;;43.25;27.02;;;8.00;90.40;;;;;;5059846;28;20028;-44
2024/02/29 08:59:33;;;;;;;41.88;24.77;;;8.10;86.90;;;;;;5057595;28;20437;-44
2024/02/29 09:02:00;;;;;;;41.17;25.33;;;8.20;87.40;;;;;;5057267;28;20021;-43
2024/02/29 09:04:26;;;;;;;39.65;24.92;;;8.20;86.20;;;;;;5054629;28;20064;-44
2024/02/29 09:06:52;;;;;;;35.20;22.70;;;8.20;83.20;;;;;;5059580;28;20500;-43
2024/02/29 09:09:18;;;;;;;35.63;22.13;;;8.20;84.80;;;;;;5059179;28;20052;-43
2024/02/29 09:11:43;;;;;;;38.25;24.33;;;8.30;86.40;;;;;;5056209;28;20349;-43
2024/02/29 09:14:09;;;;;;;41.42;25.85;;;8.50;85.70;;;;;;5054260;28;20040;-45
2024/02/29 09:16:35;;;;;;;32.65;22.42;;;8.50;84.50;;;;;;5060922;28;20424;-44
2024/02/29 09:19:00;;;;;;;38.97;23.73;;;8.50;83.90;;;;;;5054175;28;20025;-45
2024/02/29 09:21:26;;;;;;;40.35;24.33;;;8.50;85.10;;;;;;5055251;28;20020;-49
2024/02/29 09:23:51;;;;;;;40.53;26.60;;;8.50;83.00;;;;;;5060686;28;20109;-46
2024/02/29 09:26:18;;;;;;;43.75;25.15;;;8.50;82.40;;;;;;5061270;28;20107;-44
2024/02/29 09:28:44;;;;;;;39.13;23.63;;;8.50;79.40;;;;;;5062539;28;20079;-45
2024/02/29 09:31:13;;;;;;;42.80;25.55;;;8.40;80.10;;;;;;5061243;28;20029;-47
2024/02/29 09:33:39;;;;;;;40.72;26.05;;;8.50;82.10;;;;;;5061407;28;20024;-45
2024/02/29 09:36:09;;;;;;;40.45;25.10;;;8.50;80.20;;;;;;5062450;28;20016;-44
2024/02/29 09:38:35;;;;;;;39.42;24.08;;;8.40;79.90;;;;;;5062263;28;20032;-44
2024/02/29 09:41:01;;;;;;;36.35;22.25;;;8.30;77.70;;;;;;5055238;28;20090;-45
2024/02/29 09:43:27;;;;;;;37.38;24.80;;;8.40;80.20;;;;;;5056905;28;20028;-45
2024/02/29 09:45:55;;;;;;;42.90;24.90;;;8.40;79.50;;;;;;5061330;28;20086;-44
2024/02/29 09:48:22;;;;;;;42.83;27.05;;;8.20;79.10;;;;;;5057817;28;20036;-44
2024/02/29 09:50:47;;;;;;;42.92;26.05;;;8.20;78.40;;;;;;5057035;28;20055;-44
2024/02/29 09:53:15;;;;;;;41.45;26.55;;;8.00;77.10;;;;;;5058757;28;20465;-44
2024/02/29 09:55:42;;;;;;;42.75;27.42;;;8.00;76.20;;;;;;5058405;28;20046;-44
2024/02/29 09:58:08;;;;;;;43.55;26.80;;;7.90;76.20;;;;;;5057329;28;20064;-47
2024/02/29 10:00:34;;;;;;;50.58;30.25;;;7.90;77.00;;;;;;5058268;28;20063;-44
2024/02/29 10:03:00;;;;;;;50.53;31.10;;;7.90;75.40;;;;;;5058194;28;20090;-46
2024/02/29 10:05:26;;;;;;;50.28;29.95;;;7.80;75.10;;;;;;5058455;28;20029;-46
2024/02/29 10:07:51;;;;;;;47.85;27.85;;;7.50;75.10;;;;;;5055348;28;20021;-44
2024/02/29 10:10:17;;;;;;;50.38;28.73;;;7.50;75.40;;;;;;5057387;28;20068;-44
2024/02/29 10:12:43;;;;;;;52.47;30.15;;;7.50;75.20;;;;;;5059766;28;20032;-44
2024/02/29 10:15:10;;;;;;;50.63;29.35;;;7.50;75.10;;;;;;5058054;28;20055;-47
2024/02/29 10:17:39;;;;;;;50.50;27.05;;;7.40;75.00;;;;;;5055329;28;20079;-47
2024/02/29 10:20:11;;;;;;;46.20;26.67;;;7.20;75.20;;;;;;5057878;28;20033;-45
2024/02/29 10:22:40;;;;;;;51.70;28.55;;;7.10;75.50;;;;;;5053281;28;20020;-44
2024/02/29 10:25:11;;;;;;;46.95;27.15;;;7.00;75.80;;;;;;5057324;28;20028;-43
2024/02/29 10:27:37;;;;;;;58.45;30.98;;;6.90;76.70;;;;;;5058107;28;20028;-44
2024/02/29 10:30:14;;;;;;;51.45;28.17;;;6.70;77.20;;;;;;5055882;28;20033;-46
2024/02/29 10:32:41;;;;;;;55.28;29.63;;;6.60;77.60;;;;;;5057280;28;20669;-45
2024/02/29 10:35:20;;;;;;;59.65;30.70;;;6.50;78.10;;;;;;5056697;28;20437;-44
2024/02/29 10:37:48;;;;;;;56.00;28.52;;;6.40;78.80;;;;;;5055897;28;20082;-44
2024/02/29 10:40:14;;;;;;;56.95;29.80;;;6.30;79.10;;;;;;5053802;28;20028;-46
2024/02/29 10:42:41;;;;;;;53.45;28.05;;;6.20;79.90;;;;;;5057500;28;20639;-44
2024/02/29 10:45:13;;;;;;;56.40;28.63;;;6.10;80.60;;;;;;5057226;28;20066;-46
2024/02/29 10:47:45;;;;;;;58.30;29.55;;;6.10;81.50;;;;;;5055808;28;20099;-44
2024/02/29 10:50:18;;;;;;;61.50;30.42;;;6.00;81.40;;;;;;5055892;28;20029;-45
2024/02/29 10:52:49;;;;;;;53.45;26.58;;;5.90;81.70;;;;;;5055759;28;20052;-46
2024/02/29 10:55:20;;;;;;;56.92;29.73;;;5.80;82.20;;;;;;5056977;28;20021;-47
2024/02/29 10:57:56;;;;;;;61.97;29.95;;;5.70;82.90;;;;;;5055396;28;20643;-46
2024/02/29 11:00:22;;;;;;;;;;;5.70;83.50;;;;;;5055214;28;20032;-44
2024/02/29 11:02:48;;;;;;;57.55;28.67;;;5.60;83.70;;;;;;5057182;28;19995;-44
2024/02/29 11:05:14;;;;;;;61.92;29.40;;;5.50;84.00;;;;;;5057228;28;20136;-45
2024/02/29 11:07:40;;;;;;;56.42;28.52;;;5.40;84.90;;;;;;5056564;28;20028;-47
2024/02/29 11:10:07;;;;;;;64.82;31.40;;;5.50;85.40;;;;;;5057020;28;20413;-44
2024/02/29 11:12:41;;;;;;;59.70;29.75;;;5.50;86.10;;;;;;5056797;28;20028;-45
2024/02/29 11:15:11;;;;;;;68.00;32.30;;;5.50;86.00;;;;;;5056887;28;20020;-44
2024/02/29 11:17:39;;;;;;;70.05;32.47;;;5.50;86.30;;;;;;5056679;28;20119;-43
2024/02/29 11:20:09;;;;;;;58.05;28.45;;;5.50;87.20;;;;;;5057997;28;20051;-46
2024/02/29 11:22:36;;;;;;;57.90;30.10;;;5.60;87.50;;;;;;5059051;28;20108;-44
2024/02/29 11:25:09;;;;;;;62.63;31.40;;;5.60;87.40;;;;;;5058169;28;20103;-46
2024/02/29 11:27:35;;;;;;;57.80;28.95;;;5.70;87.80;;;;;;5056705;28;20028;-46
2024/02/29 11:30:02;;;;;;;67.93;33.30;;;5.80;87.70;;;;;;5054582;28;20448;-45
2024/02/29 11:32:31;;;;;;;59.38;28.88;;;5.80;88.40;;;;;;5056270;28;20030;-43
2024/02/29 11:35:00;;;;;;;65.80;32.47;;;5.80;88.00;;;;;;5056339;28;20107;-43
2024/02/29 11:37:28;;;;;;;60.60;30.13;;;5.90;88.00;;;;;;5056437;28;20493;-45
2024/02/29 11:40:01;;;;;;;66.18;32.15;;;6.00;87.70;;;;;;5053795;28;20036;-45
2024/02/29 11:42:28;;;;;;;66.55;32.47;;;6.00;87.80;;;;;;5052599;28;20021;-46
2024/02/29 11:44:54;;;;;;;55.92;28.63;;;6.10;87.80;;;;;;5055956;28;20051;-45
2024/02/29 11:47:19;;;;;;;63.25;32.83;;;6.10;88.10;;;;;;5056225;28;20019;-53
2024/02/29 11:49:45;;;;;;;63.70;31.80;;;6.20;88.30;;;;;;5055297;28;20541;-53
2024/02/29 11:52:11;;;;;;;60.67;29.90;;;6.30;88.00;;;;;;5047847;28;20031;-47
2024/02/29 11:54:37;;;;;;;56.03;29.60;;;6.30;88.10;;;;;;5059068;28;20024;-50
2024/02/29 11:57:04;;;;;;;65.80;31.98;;;6.30;88.10;;;;;;5058180;28;20036;-53
2024/02/29 11:59:29;;;;;;;60.05;29.98;;;6.30;87.80;;;;;;5057874;28;20028;-52
2024/02/29 12:01:55;;;;;;;58.17;30.27;;;6.30;88.10;;;;;;5052424;28;20054;-50
2024/02/29 12:04:21;;;;;;;56.75;29.55;;;6.30;88.40;;;;;;5056260;28;20052;-54
2024/02/29 12:06:47;;;;;;;59.85;29.08;;;6.40;88.10;;;;;;5055265;28;20615;-50
2024/02/29 12:09:13;;;;;;;53.65;27.63;;;6.40;88.20;;;;;;5056882;28;20040;-52
2024/02/29 12:11:44;;;;;;;52.90;27.65;;;6.50;88.50;;;;;;5056515;28;20024;-53
2024/02/29 12:14:10;;;;;;;51.00;27.00;;;6.50;88.40;;;;;;5057033;28;20640;-54
2024/02/29 12:16:37;;;;;;;56.63;29.10;;;6.60;88.40;;;;;;5055886;28;20040;-49
2024/02/29 12:19:03;;;;;;;56.35;29.58;;;6.70;87.90;;;;;;5054484;28;20029;-53
2024/02/29 12:21:29;;;;;;;58.03;28.63;;;6.80;87.90;;;;;;5056029;28;20251;-53
2024/02/29 12:23:57;;;;;;;53.80;27.27;;;6.90;87.80;;;;;;5052186;28;20029;-49
2024/02/29 12:26:25;;;;;;;53.47;26.38;;;7.00;87.10;;;;;;5048826;28;20512;-54